Time;durP1;ratioP1;P1;durP2;ratioP2;P2;SDS_P1;SDS_P2;PMS_P1;PMS_P2;Temp;Humidity;BMP_temperature;BMP_pressure;BME280_temperature;BME280_humidity;BME280_pressure;Samples;Min_cycle;Max_cycle;Signal;HPM_P1;HPM_P2
2023/07/14 00:01:35;;;;;;;11.75;7.68;;;;;;;-140.66;100.00;55571.53;5115504;28;20012;-74
2023/07/14 00:04:33;;;;;;;12.90;7.18;;;;;;;-140.66;100.00;55571.53;5116249;28;20081;-73
2023/07/14 00:07:19;;;;;;;15.20;7.43;;;;;;;-140.66;100.00;55571.53;5115930;28;20035;-73
2023/07/14 00:10:14;;;;;;;12.25;7.28;;;;;;;-140.66;100.00;55571.53;5115975;28;20384;-73
2023/07/14 00:13:07;;;;;;;12.38;7.25;;;;;;;-140.66;100.00;55571.53;5115741;28;20035;-74
2023/07/14 00:15:53;;;;;;;10.98;7.07;;;;;;;-140.66;100.00;55571.53;5100482;28;20088;-73
2023/07/14 00:18:39;;;;;;;17.05;7.95;;;;;;;-140.66;100.00;55571.53;5115028;28;20130;-73
2023/07/14 00:21:26;;;;;;;9.75;7.50;;;;;;;-140.66;100.00;55571.53;5116346;28;20047;-74
2023/07/14 00:24:15;;;;;;;13.05;7.13;;;;;;;-140.66;100.00;55571.53;5116205;28;20038;-74
2023/07/14 00:27:01;;;;;;;15.63;7.32;;;;;;;-140.66;100.00;55571.53;5101466;28;20019;-73
2023/07/14 00:29:47;;;;;;;14.23;7.15;;;;;;;-140.66;100.00;55571.53;5117222;28;20110;-74
2023/07/14 00:32:33;;;;;;;8.85;6.70;;;;;;;-140.66;100.00;55571.53;5115014;28;20031;-73
2023/07/14 00:35:20;;;;;;;11.35;7.68;;;;;;;-140.66;100.00;55571.53;5115480;28;20047;-74
2023/07/14 00:38:06;;;;;;;11.18;7.13;;;;;;;-140.66;100.00;55571.53;5100665;28;20027;-74
2023/07/14 00:40:51;;;;;;;10.93;7.47;;;;;;;-140.66;100.00;55571.53;5100305;28;20031;-73
2023/07/14 00:43:37;;;;;;;11.30;7.75;;;;;;;-140.66;100.00;55571.53;5115850;28;20027;-73
2023/07/14 00:46:26;;;;;;;12.77;8.40;;;;;;;-140.66;100.00;55571.53;5114935;28;20077;-73
2023/07/14 00:49:21;;;;;;;13.65;8.50;;;;;;;-140.66;100.00;55571.53;5115321;28;20020;-73
2023/07/14 00:52:22;;;;;;;12.20;8.30;;;;;;;-140.66;100.00;55571.53;5115059;28;20063;-73
2023/07/14 00:55:24;;;;;;;14.27;8.68;;;;;;;-140.66;100.00;55571.53;5116055;28;20092;-73
2023/07/14 00:58:17;;;;;;;18.23;8.40;;;;;;;-140.66;100.00;55571.53;5114777;28;20444;-73
2023/07/14 01:01:09;;;;;;;11.55;8.73;;;;;;;-140.66;100.00;55571.53;5114860;28;20062;-73
2023/07/14 01:03:56;;;;;;;16.10;9.05;;;;;;;-140.66;100.00;55571.53;5115016;28;20466;-73
2023/07/14 01:06:42;;;;;;;11.32;7.75;;;;;;;-140.66;100.00;55571.53;5116153;28;20043;-73
2023/07/14 01:09:28;;;;;;;13.50;8.80;;;;;;;-140.66;100.00;55571.53;5114435;28;20024;-74
2023/07/14 01:12:19;;;;;;;10.50;7.97;;;;;;;-140.66;100.00;55571.53;5115649;28;20040;-74
2023/07/14 01:15:07;;;;;;;15.52;9.05;;;;;;;-140.66;100.00;55571.53;5113701;28;20440;-73
2023/07/14 01:17:53;;;;;;;11.20;8.85;;;;;;;-140.66;100.00;55571.53;5123823;28;20090;-73
2023/07/14 01:20:40;;;;;;;18.67;9.65;;;;;;;-140.66;100.00;55571.53;5119026;28;20036;-73
2023/07/14 01:23:31;;;;;;;14.40;8.55;;;;;;;-140.66;100.00;55571.53;5115628;28;20023;-74
2023/07/14 01:26:30;;;;;;;11.95;7.85;;;;;;;-140.66;100.00;55571.53;5114611;28;20023;-74
2023/07/14 01:29:17;;;;;;;12.02;8.57;;;;;;;-140.66;100.00;55571.53;5114169;28;20362;-74
2023/07/14 01:32:16;;;;;;;11.75;8.10;;;;;;;-140.66;100.00;55571.53;5115389;28;20093;-74
2023/07/14 01:35:05;;;;;;;13.57;8.85;;;;;;;-140.66;100.00;55571.53;5113364;28;20024;-73
2023/07/14 01:37:51;;;;;;;16.33;9.48;;;;;;;-140.66;100.00;55571.53;5114577;28;20066;-74
2023/07/14 01:40:37;;;;;;;15.38;8.60;;;;;;;-140.66;100.00;55571.53;5118921;28;20034;-74
2023/07/14 01:43:23;;;;;;;16.20;9.63;;;;;;;-140.66;100.00;55571.53;5118913;28;20359;-74
2023/07/14 01:46:16;;;;;;;18.75;9.20;;;;;;;-140.66;100.00;55571.53;5119324;28;20020;-74
2023/07/14 01:49:13;;;;;;;17.73;9.95;;;;;;;-140.66;100.00;55571.53;5124147;28;20027;-73
2023/07/14 01:52:02;;;;;;;17.55;10.00;;;;;;;-140.66;100.00;55571.53;5118225;28;20432;-74
2023/07/14 01:54:53;;;;;;;14.32;9.57;;;;;;;-140.66;100.00;55571.53;5102711;28;20027;-74
2023/07/14 01:57:40;;;;;;;15.60;9.65;;;;;;;-140.66;100.00;55571.53;5118153;28;20024;-74
2023/07/14 02:00:26;;;;;;;19.45;10.23;;;;;;;-140.66;100.00;55571.53;5130024;28;20042;-73
2023/07/14 02:03:17;;;;;;;19.17;9.82;;;;;;;-140.66;100.00;55571.53;5117981;28;20038;-74
2023/07/14 02:06:03;;;;;;;34.28;10.30;;;;;;;-140.66;100.00;55571.53;5130829;28;20034;-73
2023/07/14 02:08:50;;;;;;;17.80;9.15;;;;;;;-140.66;100.00;55571.53;5119121;28;20031;-74
2023/07/14 02:11:36;;;;;;;16.23;8.77;;;;;;;-140.66;100.00;55571.53;5116906;28;20036;-74
2023/07/14 02:14:27;;;;;;;13.57;8.52;;;;;;;-140.66;100.00;55571.53;5118126;28;20024;-74
2023/07/14 02:17:27;;;;;;;21.75;9.20;;;;;;;-140.66;100.00;55571.53;5118954;28;20026;-74
2023/07/14 02:20:24;;;;;;;17.38;9.98;;;;;;;-140.66;100.00;55571.53;5117446;28;20047;-74
2023/07/14 02:23:19;;;;;;;17.73;8.98;;;;;;;-140.66;100.00;55571.53;5117787;28;20023;-74
2023/07/14 02:26:34;;;;;;;15.73;9.60;;;;;;;-140.66;100.00;55571.53;5118184;28;20144;-73
2023/07/14 02:29:20;;;;;;;18.67;9.15;;;;;;;-140.66;100.00;55571.53;5116951;28;20027;-74
2023/07/14 02:32:29;;;;;;;17.25;9.60;;;;;;;-140.66;100.00;55571.53;5117687;28;20028;-74
2023/07/14 02:35:41;;;;;;;15.43;9.10;;;;;;;-140.66;100.00;55571.53;5116424;28;20100;-73
2023/07/14 02:38:26;;;;;;;18.92;9.55;;;;;;;-140.66;100.00;55571.53;5102805;28;20061;-73
2023/07/14 02:41:20;;;;;;;16.88;9.68;;;;;;;-140.66;100.00;55571.53;5117276;28;20092;-74
2023/07/14 02:44:13;;;;;;;16.30;9.00;;;;;;;-140.66;100.00;55571.53;5102119;28;20118;-73
2023/07/14 02:47:06;;;;;;;17.63;9.32;;;;;;;-140.66;100.00;55571.53;5117509;28;20019;-73
2023/07/14 02:49:52;;;;;;;24.77;10.70;;;;;;;-140.66;100.00;55571.53;5117649;28;20069;-74
2023/07/14 02:52:37;;;;;;;14.48;9.77;;;;;;;-140.66;100.00;55571.53;5117435;28;20020;-73
2023/07/14 02:55:23;;;;;;;23.55;10.35;;;;;;;-140.66;100.00;55571.53;5116897;28;20537;-73
2023/07/14 02:58:09;;;;;;;18.60;9.90;;;;;;;-140.66;100.00;55571.53;5101878;28;20386;-74
2023/07/14 03:00:55;;;;;;;20.38;10.07;;;;;;;-140.66;100.00;55571.53;5115838;28;20337;-74
2023/07/14 03:03:40;;;;;;;24.20;11.48;;;;;;;-140.66;100.00;55571.53;5117146;28;20443;-73
2023/07/14 03:06:26;;;;;;;17.02;11.68;;;;;;;-140.66;100.00;55571.53;5117420;28;20070;-74
2023/07/14 03:09:12;;;;;;;19.75;11.75;;;;;;;-140.66;100.00;55571.53;5116788;28;20402;-75
2023/07/14 03:11:58;;;;;;;21.88;12.18;;;;;;;-140.66;100.00;55571.53;5116500;28;20060;-75
2023/07/14 03:14:43;;;;;;;20.15;11.77;;;;;;;-140.66;100.00;55571.53;5117648;28;20116;-72
2023/07/14 03:17:29;;;;;;;19.20;11.85;;;;;;;-140.66;100.00;55571.53;5101307;28;20088;-74
2023/07/14 03:20:15;;;;;;;20.40;12.23;;;;;;;-140.66;100.00;55571.53;5117339;28;20054;-73
2023/07/14 03:23:01;;;;;;;25.13;11.70;;;;;;;-140.66;100.00;55571.53;5116882;28;20038;-74
2023/07/14 03:25:52;;;;;;;23.30;12.40;;;;;;;-140.66;100.00;55571.53;5117435;28;20023;-74
2023/07/14 03:28:38;;;;;;;22.98;11.50;;;;;;;-140.66;100.00;55571.53;5116086;28;20089;-74
2023/07/14 03:31:24;;;;;;;21.10;12.90;;;;;;;-140.66;100.00;55571.53;5101509;28;20027;-72
2023/07/14 03:34:10;;;;;;;26.38;12.90;;;;;;;-140.66;100.00;55571.53;5115129;28;20031;-73
2023/07/14 03:36:56;;;;;;;41.85;15.02;;;;;;;-140.66;100.00;55571.53;5117231;28;20068;-73
2023/07/14 03:39:42;;;;;;;30.40;13.95;;;;;;;-140.66;100.00;55571.53;5102418;28;20093;-73
2023/07/14 03:42:28;;;;;;;23.52;12.95;;;;;;;-140.66;100.00;55571.53;5116629;28;20110;-73
2023/07/14 03:45:14;;;;;;;25.65;13.05;;;;;;;-140.66;100.00;55571.53;5115243;28;20028;-74
2023/07/14 03:48:00;;;;;;;30.13;14.75;;;;;;;-140.66;100.00;55571.53;5101613;28;20055;-73
2023/07/14 03:50:46;;;;;;;23.48;13.35;;;;;;;-140.66;100.00;55571.53;5115004;28;20424;-73
2023/07/14 03:53:32;;;;;;;24.55;12.40;;;;;;;-140.66;100.00;55571.53;5114632;28;20035;-73
2023/07/14 03:56:18;;;;;;;19.70;12.02;;;;;;;-140.66;100.00;55571.53;5116213;28;20019;-74
2023/07/14 03:59:03;;;;;;;23.17;11.57;;;;;;;-140.66;100.00;55571.53;5115383;28;20069;-74
2023/07/14 04:01:49;;;;;;;23.70;12.25;;;;;;;-140.66;100.00;55571.53;5115670;28;20087;-74
2023/07/14 04:04:35;;;;;;;19.00;11.63;;;;;;;-140.66;100.00;55571.53;5115396;28;20109;-73
2023/07/14 04:07:21;;;;;;;21.92;11.90;;;;;;;-140.66;100.00;55571.53;5115678;28;20031;-73
2023/07/14 04:10:08;;;;;;;17.70;12.05;;;;;;;-140.66;100.00;55571.53;5101113;28;20027;-73
2023/07/14 04:12:56;;;;;;;20.17;11.75;;;;;;;-140.66;100.00;55571.53;5101472;28;20032;-73
2023/07/14 04:15:42;;;;;;;22.60;12.68;;;;;;;-140.66;100.00;55571.53;5116109;28;20419;-73
2023/07/14 04:18:28;;;;;;;30.48;11.60;;;;;;;-140.66;100.00;55571.53;5115789;28;20035;-73
2023/07/14 04:21:14;;;;;;;17.42;9.30;;;;;;;-140.66;100.00;55571.53;5115333;28;20138;-74
2023/07/14 04:23:59;;;;;;;46.88;10.40;;;;;;;-140.66;100.00;55571.53;5115459;28;20398;-74
2023/07/14 04:26:45;;;;;;;48.35;8.00;;;;;;;-140.66;100.00;55571.53;5115293;28;20028;-74
2023/07/14 04:29:31;;;;;;;16.35;6.60;;;;;;;-140.66;100.00;55571.53;5114235;28;20027;-74
2023/07/14 04:32:17;;;;;;;14.18;5.70;;;;;;;-140.66;100.00;55571.53;5115826;28;20023;-74
2023/07/14 04:35:04;;;;;;;17.85;5.80;;;;;;;-140.66;100.00;55571.53;5115673;28;20046;-75
2023/07/14 04:37:49;;;;;;;17.10;4.70;;;;;;;-140.66;100.00;55571.53;5115215;28;20020;-72
2023/07/14 04:40:40;;;;;;;14.60;5.95;;;;;;;-140.66;100.00;55571.53;5115202;28;20077;-74
2023/07/14 04:43:25;;;;;;;12.23;4.10;;;;;;;-140.66;100.00;55571.53;5115177;28;20460;-73
2023/07/14 04:46:12;;;;;;;32.55;5.43;;;;;;;-140.66;100.00;55571.53;5115744;28;20344;-74
2023/07/14 04:48:58;;;;;;;22.40;4.47;;;;;;;-140.66;100.00;55571.53;5114721;28;20106;-74
2023/07/14 04:51:44;;;;;;;17.38;4.05;;;;;;;-140.66;100.00;55571.53;5115122;28;20368;-73
2023/07/14 04:54:30;;;;;;;11.88;4.32;;;;;;;-140.66;100.00;55571.53;5114821;28;20050;-73
2023/07/14 04:57:17;;;;;;;12.20;4.65;;;;;;;-140.66;100.00;55571.53;5114794;28;20035;-74
2023/07/14 05:00:05;;;;;;;9.73;4.82;;;;;;;-140.66;100.00;55571.53;5115504;28;20112;-74
2023/07/14 05:02:51;;;;;;;13.45;4.65;;;;;;;-140.66;100.00;55571.53;5113961;28;20081;-74
2023/07/14 05:05:37;;;;;;;15.52;5.00;;;;;;;-140.66;100.00;55571.53;5114940;28;20024;-73
2023/07/14 05:08:22;;;;;;;15.45;4.72;;;;;;;-140.66;100.00;55571.53;5114986;28;20031;-74
2023/07/14 05:11:08;;;;;;;11.10;4.28;;;;;;;-140.66;100.00;55571.53;5114203;28;20023;-73
2023/07/14 05:13:54;;;;;;;13.32;4.72;;;;;;;-140.66;100.00;55571.53;5114051;28;20035;-77
2023/07/14 05:16:39;;;;;;;11.23;4.20;;;;;;;-140.66;100.00;55571.53;5129605;28;20024;-73
2023/07/14 05:19:25;;;;;;;10.35;4.25;;;;;;;-140.66;100.00;55571.53;5108249;28;20057;-73
2023/07/14 05:22:11;;;;;;;16.70;4.38;;;;;;;-140.66;100.00;55571.53;5114395;28;20043;-75
2023/07/14 05:24:57;;;;;;;10.27;4.30;;;;;;;-140.66;100.00;55571.53;5114453;28;20051;-73
2023/07/14 05:27:43;;;;;;;10.98;4.43;;;;;;;-140.66;100.00;55571.53;5115462;28;20039;-74
2023/07/14 05:30:30;;;;;;;22.38;5.00;;;;;;;-140.66;100.00;55571.53;5113861;28;20106;-73
2023/07/14 05:33:17;;;;;;;15.88;4.70;;;;;;;-140.66;100.00;55571.53;5114416;28;20162;-74
2023/07/14 05:36:02;;;;;;;11.52;4.43;;;;;;;-140.66;100.00;55571.53;5129415;28;20032;-72
2023/07/14 05:38:48;;;;;;;11.50;4.47;;;;;;;-140.66;100.00;55571.53;5106811;28;20024;-75
2023/07/14 05:41:34;;;;;;;12.30;4.85;;;;;;;-140.66;100.00;55571.53;5113802;28;20482;-74
2023/07/14 05:44:20;;;;;;;9.00;4.30;;;;;;;-140.66;100.00;55571.53;5114659;28;20031;-72
2023/07/14 05:47:06;;;;;;;13.30;4.20;;;;;;;-140.66;100.00;55571.53;5114117;28;20468;-74
2023/07/14 05:49:52;;;;;;;25.77;8.02;;;;;;;-140.66;100.00;55571.53;5099436;28;20153;-73
2023/07/14 05:52:38;;;;;;;8.98;4.32;;;;;;;-140.66;100.00;55571.53;5115282;28;20055;-74
2023/07/14 05:55:23;;;;;;;8.23;4.25;;;;;;;-140.66;100.00;55571.53;5115462;28;20042;-74
2023/07/14 05:58:09;;;;;;;13.45;5.07;;;;;;;-140.66;100.00;55571.53;5114450;28;20110;-74
2023/07/14 06:00:55;;;;;;;12.13;5.03;;;;;;;-140.66;100.00;55571.53;5114347;28;20027;-74
2023/07/14 06:03:41;;;;;;;12.80;4.32;;;;;;;-140.66;100.00;55571.53;5113944;28;20028;-73
2023/07/14 06:06:27;;;;;;;12.18;4.90;;;;;;;-140.66;100.00;55571.53;5113965;28;20124;-74
2023/07/14 06:09:14;;;;;;;16.23;4.50;;;;;;;-140.66;100.00;55571.53;5113958;28;20023;-74
2023/07/14 06:12:02;;;;;;;11.80;4.47;;;;;;;-140.66;100.00;55571.53;5113591;28;20356;-74
2023/07/14 06:14:48;;;;;;;5.97;4.03;;;;;;;-140.66;100.00;55571.53;5113706;28;20055;-73
2023/07/14 06:17:33;;;;;;;8.75;4.05;;;;;;;-140.66;100.00;55571.53;5113942;28;20417;-74
2023/07/14 06:20:20;;;;;;;8.43;4.10;;;;;;;-140.66;100.00;55571.53;5113312;28;20044;-74
2023/07/14 06:23:05;;;;;;;15.02;5.22;;;;;;;-140.66;100.00;55571.53;5113877;28;20373;-73
2023/07/14 06:25:51;;;;;;;10.32;4.85;;;;;;;-140.66;100.00;55571.53;5116178;28;20027;-73
2023/07/14 06:28:38;;;;;;;9.23;4.50;;;;;;;-140.66;100.00;55571.53;5118153;28;20059;-73
2023/07/14 06:31:24;;;;;;;13.40;4.97;;;;;;;-140.66;100.00;55571.53;5102669;28;20036;-73
2023/07/14 06:34:09;;;;;;;10.25;4.25;;;;;;;-140.66;100.00;55571.53;5117179;28;20042;-74
2023/07/14 06:36:55;;;;;;;12.30;4.30;;;;;;;-140.66;100.00;55571.53;5117835;28;20020;-74
2023/07/14 06:39:41;;;;;;;12.57;4.60;;;;;;;-140.66;100.00;55571.53;5103896;28;20039;-73
2023/07/14 06:42:27;;;;;;;9.70;5.10;;;;;;;-140.66;100.00;55571.53;5102902;28;20035;-73
2023/07/14 06:45:13;;;;;;;10.27;4.40;;;;;;;-140.66;100.00;55571.53;5117524;28;20031;-74
2023/07/14 06:47:58;;;;;;;14.25;5.05;;;;;;;-140.66;100.00;55571.53;5117042;28;20085;-74
2023/07/14 06:50:44;;;;;;;9.13;4.82;;;;;;;-140.66;100.00;55571.53;5103447;28;20024;-73
2023/07/14 06:53:30;;;;;;;12.88;5.20;;;;;;;-140.66;100.00;55571.53;5117018;28;20046;-74
2023/07/14 06:56:16;;;;;;;12.73;4.70;;;;;;;-140.66;100.00;55571.53;5117265;28;20024;-73
2023/07/14 06:59:02;;;;;;;14.20;4.65;;;;;;;-140.66;100.00;55571.53;5117316;28;20092;-73
2023/07/14 07:01:48;;;;;;;18.75;4.82;;;;;;;-140.66;100.00;55571.53;5101966;28;20102;-73
2023/07/14 07:04:34;;;;;;;13.73;4.53;;;;;;;-140.66;100.00;55571.53;5116881;28;20027;-73
2023/07/14 07:07:20;;;;;;;13.10;4.82;;;;;;;-140.66;100.00;55571.53;5117369;28;20031;-73
2023/07/14 07:10:07;;;;;;;11.50;4.38;;;;;;;-140.66;100.00;55571.53;5102251;28;20168;-74
2023/07/14 07:12:53;;;;;;;9.73;4.40;;;;;;;-140.66;100.00;55571.53;5102148;28;20035;-73
2023/07/14 07:15:40;;;;;;;8.18;3.95;;;;;;;-140.66;100.00;55571.53;5102646;28;20024;-73
2023/07/14 07:18:26;;;;;;;10.85;4.72;;;;;;;-140.66;100.00;55571.53;5116265;28;20028;-74
2023/07/14 07:21:12;;;;;;;8.85;4.82;;;;;;;-140.66;100.00;55571.53;5117814;28;20078;-73
2023/07/14 07:23:58;;;;;;;16.27;5.38;;;;;;;-140.66;100.00;55571.53;5117844;28;20042;-72
2023/07/14 07:26:44;;;;;;;10.40;4.40;;;;;;;-140.66;100.00;55571.53;5102487;28;20039;-73
2023/07/14 07:29:30;;;;;;;11.32;4.95;;;;;;;-140.66;100.00;55571.53;5102053;28;20428;-73
2023/07/14 07:32:17;;;;;;;10.82;4.25;;;;;;;-140.66;100.00;55571.53;5117298;28;20077;-73
2023/07/14 07:35:04;;;;;;;9.90;4.40;;;;;;;-140.66;100.00;55571.53;5100932;28;20093;-73
2023/07/14 07:37:49;;;;;;;6.63;3.90;;;;;;;-140.66;100.00;55571.53;5116405;28;20031;-73
2023/07/14 07:40:36;;;;;;;12.07;3.97;;;;;;;-140.66;100.00;55571.53;5116491;28;20038;-74
2023/07/14 07:43:22;;;;;;;10.43;3.85;;;;;;;-140.66;100.00;55571.53;5101471;28;20034;-74
2023/07/14 07:46:09;;;;;;;7.20;4.40;;;;;;;-140.66;100.00;55571.53;5116616;28;20023;-75
2023/07/14 07:48:54;;;;;;;10.60;3.88;;;;;;;-140.66;100.00;55571.53;5115587;28;20016;-74
2023/07/14 07:51:40;;;;;;;8.05;4.05;;;;;;;-140.66;100.00;55571.53;5115666;28;20032;-74
2023/07/14 07:54:26;;;;;;;7.80;4.22;;;;;;;-140.66;100.00;55571.53;5130588;28;20056;-73
2023/07/14 07:57:12;;;;;;;10.40;4.55;;;;;;;-140.66;100.00;55571.53;5126857;28;20366;-72
2023/07/14 07:59:57;;;;;;;8.63;4.53;;;;;;;-140.66;100.00;55571.53;5115704;28;20023;-73
2023/07/14 08:02:43;;;;;;;10.20;3.95;;;;;;;-140.66;100.00;55571.53;5101163;28;20084;-73
2023/07/14 08:05:29;;;;;;;10.27;4.32;;;;;;;-140.66;100.00;55571.53;5116092;28;20020;-73
2023/07/14 08:08:15;;;;;;;8.13;4.28;;;;;;;-140.66;100.00;55571.53;5128036;28;20078;-73
2023/07/14 08:11:02;;;;;;;14.95;4.47;;;;;;;-140.66;100.00;55571.53;5127162;28;20363;-73
2023/07/14 08:13:48;;;;;;;10.82;5.30;;;;;;;-140.66;100.00;55571.53;5116684;28;20034;-73
2023/07/14 08:16:33;;;;;;;9.23;4.10;;;;;;;-140.66;100.00;55571.53;5101220;28;20036;-74
2023/07/14 08:19:19;;;;;;;7.57;4.22;;;;;;;-140.66;100.00;55571.53;5115671;28;20039;-74
2023/07/14 08:22:05;;;;;;;10.50;4.32;;;;;;;-140.66;100.00;55571.53;5102293;28;20036;-74
2023/07/14 08:24:51;;;;;;;9.60;4.30;;;;;;;-140.66;100.00;55571.53;5102280;28;20031;-74
2023/07/14 08:27:37;;;;;;;9.00;3.97;;;;;;;-140.66;100.00;55571.53;5115679;28;20030;-74
2023/07/14 08:30:23;;;;;;;9.05;4.60;;;;;;;-140.66;100.00;55571.53;5114855;28;20108;-73
2023/07/14 08:33:09;;;;;;;10.20;4.50;;;;;;;-140.66;100.00;55571.53;5116316;28;20039;-73
2023/07/14 08:36:00;;;;;;;12.75;5.63;;;;;;;-140.66;100.00;55571.53;5114865;28;20038;-73
2023/07/14 08:38:45;;;;;;;12.15;5.68;;;;;;;-140.66;100.00;55571.53;5115769;28;20028;-73
2023/07/14 08:41:38;;;;;;;11.13;4.82;;;;;;;-140.66;100.00;55571.53;5114469;28;20024;-73
2023/07/14 08:44:54;;;;;;;9.85;4.82;;;;;;;-140.66;100.00;55571.53;5114181;28;20073;-73
2023/07/14 08:47:59;;;;;;;12.15;4.95;;;;;;;-140.66;100.00;55571.53;5101161;28;20110;-73
2023/07/14 08:50:48;;;;;;;11.65;4.93;;;;;;;-140.66;100.00;55571.53;5114629;28;20368;-73
2023/07/14 08:53:34;;;;;;;13.52;4.75;;;;;;;-140.66;100.00;55571.53;5099867;28;20031;-73
2023/07/14 08:56:20;;;;;;;18.77;4.97;;;;;;;-140.66;100.00;55571.53;5114262;28;20043;-75
2023/07/14 08:59:25;;;;;;;10.15;4.55;;;;;;;-140.66;100.00;55571.53;5115637;28;20458;-74
2023/07/14 09:02:41;;;;;;;9.52;4.22;;;;;;;-140.66;100.00;55571.53;5114786;28;20020;-73
2023/07/14 09:05:28;;;;;;;16.88;4.70;;;;;;;-140.66;100.00;55571.53;5113380;28;20038;-73
2023/07/14 09:08:14;;;;;;;9.82;4.50;;;;;;;-140.66;100.00;55571.53;5115907;28;20042;-72
2023/07/14 09:11:16;;;;;;;12.52;4.90;;;;;;;-140.66;100.00;55571.53;5099170;28;20034;-73
2023/07/14 09:14:09;;;;;;;12.02;4.57;;;;;;;-140.66;100.00;55571.53;5114913;28;20089;-72
2023/07/14 09:17:14;;;;;;;9.52;4.15;;;;;;;-140.66;100.00;55571.53;5114980;28;20051;-73
2023/07/14 09:20:23;;;;;;;10.07;4.50;;;;;;;-140.66;100.00;55571.53;5113818;28;20357;-74
2023/07/14 09:23:32;;;;;;;11.88;4.60;;;;;;;-140.66;100.00;55571.53;5100170;28;20027;-73
2023/07/14 09:26:24;;;;;;;12.20;4.97;;;;;;;-140.66;100.00;55571.53;5115581;28;20031;-74
2023/07/14 09:29:36;;;;;;;11.63;4.70;;;;;;;-140.66;100.00;55571.53;5114681;28;20038;-74
2023/07/14 09:32:37;;;;;;;12.48;5.25;;;;;;;-140.66;100.00;55571.53;5114717;28;20027;-74
2023/07/14 09:35:25;;;;;;;10.73;4.90;;;;;;;-140.66;100.00;55571.53;5099175;28;20020;-74
2023/07/14 09:38:41;;;;;;;9.98;4.85;;;;;;;-140.66;100.00;55571.53;5099934;28;20023;-73
2023/07/14 09:41:30;;;;;;;11.23;5.25;;;;;;;-140.66;100.00;55571.53;5099321;28;20066;-74
2023/07/14 09:44:16;;;;;;;14.75;6.28;;;;;;;-140.66;100.00;55571.53;5114993;28;20440;-73
2023/07/14 09:47:04;;;;;;;14.77;6.13;;;;;;;-140.66;100.00;55571.53;5114281;28;20028;-73
2023/07/14 09:49:57;;;;;;;12.15;6.38;;;;;;;-140.66;100.00;55571.53;5113793;28;20100;-73
2023/07/14 09:52:55;;;;;;;15.18;6.15;;;;;;;-140.66;100.00;55571.53;5098971;28;20027;-73
2023/07/14 09:55:47;;;;;;;11.68;6.03;;;;;;;-140.66;100.00;55571.53;5114537;28;20096;-73
2023/07/14 09:58:33;;;;;;;15.27;5.93;;;;;;;-140.66;100.00;55571.53;5113585;28;20034;-73
2023/07/14 10:01:19;;;;;;;16.33;5.53;;;;;;;-140.66;100.00;55571.53;5117544;28;20043;-74
2023/07/14 10:04:14;;;;;;;11.02;5.15;;;;;;;-140.66;100.00;55571.53;5103826;28;20019;-73
2023/07/14 10:07:40;;;;;;;16.23;5.00;;;;;;;-140.66;100.00;55571.53;5118523;28;20059;-73
2023/07/14 10:10:26;;;;;;;11.10;4.65;;;;;;;-140.66;100.00;55571.53;5082264;28;20043;-73
2023/07/14 10:13:22;;;;;;;22.58;5.85;;;;;;;-140.66;100.00;55571.53;5118770;28;20028;-74
2023/07/14 10:16:15;;;;;;;13.82;4.90;;;;;;;-140.66;100.00;55571.53;5117106;28;20019;-74
2023/07/14 10:19:11;;;;;;;9.00;4.88;;;;;;;-140.66;100.00;55571.53;5117407;28;20031;-73
2023/07/14 10:22:05;;;;;;;11.70;4.85;;;;;;;-140.66;100.00;55571.53;5117621;28;20048;-73
2023/07/14 10:24:57;;;;;;;9.50;4.20;;;;;;;-140.66;100.00;55571.53;5117829;28;20120;-74
2023/07/14 10:27:55;;;;;;;6.43;4.00;;;;;;;-140.66;100.00;55571.53;5118763;28;20027;-73
2023/07/14 10:30:41;;;;;;;16.88;4.22;;;;;;;-140.66;100.00;55571.53;5104282;28;20023;-73
2023/07/14 10:33:56;;;;;;;12.32;4.47;;;;;;;-140.66;100.00;55571.53;5141038;27;20042;-73
2023/07/14 10:36:43;;;;;;;8.52;4.10;;;;;;;-140.66;100.00;55571.53;5115472;28;20031;-73
2023/07/14 10:39:43;;;;;;;10.75;4.03;;;;;;;-140.66;100.00;55571.53;5118951;28;20065;-74
2023/07/14 10:42:34;;;;;;;12.38;4.20;;;;;;;-140.66;100.00;55571.53;5117634;28;20023;-73
2023/07/14 10:45:20;;;;;;;7.90;4.20;;;;;;;-140.66;100.00;55571.53;5117458;28;20462;-73
2023/07/14 10:48:30;;;;;;;19.33;4.25;;;;;;;-140.66;100.00;55571.53;5118334;28;20046;-73
2023/07/14 10:51:30;;;;;;;12.48;4.57;;;;;;;-140.66;100.00;55571.53;5107120;28;20084;-72
2023/07/14 10:54:26;;;;;;;15.15;4.55;;;;;;;-140.66;100.00;55571.53;5125653;28;20081;-74
2023/07/14 10:57:39;;;;;;;10.10;4.05;;;;;;;-140.66;100.00;55571.53;5102714;28;20024;-74
2023/07/14 11:00:33;;;;;;;10.27;4.32;;;;;;;-140.66;100.00;55571.53;5117176;28;20100;-73
2023/07/14 11:03:26;;;;;;;7.88;4.07;;;;;;;-140.66;100.00;55571.53;5102046;28;20356;-73
2023/07/14 11:06:19;;;;;;;13.13;4.50;;;;;;;-140.66;100.00;55571.53;5116841;28;20082;-73
2023/07/14 11:09:11;;;;;;;9.88;4.43;;;;;;;-140.66;100.00;55571.53;5117194;28;20067;-73
2023/07/14 11:12:05;;;;;;;12.30;4.65;;;;;;;-140.66;100.00;55571.53;5116528;28;20058;-73
2023/07/14 11:15:20;;;;;;;17.70;5.22;;;;;;;-140.66;100.00;55571.53;5116720;28;20459;-73
2023/07/14 11:18:32;;;;;;;12.68;5.18;;;;;;;-140.66;100.00;55571.53;5116324;28;20505;-73
2023/07/14 11:22:00;;;;;;;15.88;4.78;;;;;;;-140.66;100.00;55571.53;5116561;28;20044;-73
2023/07/14 11:25:16;;;;;;;13.93;5.20;;;;;;;-140.66;100.00;55571.53;5117203;28;20448;-73
2023/07/14 11:28:13;;;;;;;8.43;4.95;;;;;;;-140.66;100.00;55571.53;5116635;28;20065;-74
2023/07/14 11:31:03;;;;;;;9.63;4.82;;;;;;;-140.66;100.00;55571.53;5116714;28;20024;-74
2023/07/14 11:33:54;;;;;;;9.75;5.30;;;;;;;-140.66;100.00;55571.53;5117611;28;20023;-74
2023/07/14 11:36:54;;;;;;;13.60;5.22;;;;;;;-140.66;100.00;55571.53;5115897;28;20107;-73
2023/07/14 11:40:01;;;;;;;11.45;4.97;;;;;;;-140.66;100.00;55571.53;5116109;28;20031;-73
2023/07/14 11:43:00;;;;;;;8.77;5.07;;;;;;;-140.66;100.00;55571.53;5116321;28;20019;-74
2023/07/14 11:45:53;;;;;;;12.27;5.15;;;;;;;-140.66;100.00;55571.53;5116053;28;20102;-74
2023/07/14 11:48:59;;;;;;;8.88;4.80;;;;;;;-140.66;100.00;55571.53;5101375;28;20114;-74
2023/07/14 11:51:50;;;;;;;10.98;5.65;;;;;;;-140.66;100.00;55571.53;5116492;28;20027;-73
2023/07/14 11:54:54;;;;;;;9.75;4.95;;;;;;;-140.66;100.00;55571.53;5115785;28;20030;-73
2023/07/14 11:57:49;;;;;;;8.23;5.07;;;;;;;-140.66;100.00;55571.53;5100101;28;20110;-74
2023/07/14 12:00:39;;;;;;;8.77;5.38;;;;;;;-140.66;100.00;55571.53;5116064;28;20027;-73
2023/07/14 12:03:38;;;;;;;22.27;5.68;;;;;;;-140.66;100.00;55571.53;5115745;28;20034;-74
2023/07/14 12:06:41;;;;;;;12.68;5.40;;;;;;;-140.66;100.00;55571.53;5116624;28;20027;-72
2023/07/14 12:09:27;;;;;;;14.32;5.82;;;;;;;-140.66;100.00;55571.53;5115878;28;20062;-74
2023/07/14 12:12:18;;;;;;;13.50;6.05;;;;;;;-140.66;100.00;55571.53;5115615;28;20073;-74
2023/07/14 12:15:39;;;;;;;10.48;6.10;;;;;;;-140.66;100.00;55571.53;5116226;28;20031;-74
2023/07/14 12:18:28;;;;;;;10.20;6.30;;;;;;;-140.66;100.00;55571.53;5114767;28;20028;-73
2023/07/14 12:21:14;;;;;;;12.95;6.70;;;;;;;-140.66;100.00;55571.53;5115646;28;20043;-73
2023/07/14 12:24:14;;;;;;;14.60;6.65;;;;;;;-140.66;100.00;55571.53;5114276;28;20348;-73
2023/07/14 12:27:08;;;;;;;16.73;6.57;;;;;;;-140.66;100.00;55571.53;5115134;28;20039;-74
2023/07/14 12:30:12;;;;;;;14.38;6.53;;;;;;;-140.66;100.00;55571.53;5114847;28;20085;-74
2023/07/14 12:33:11;;;;;;;7.25;5.70;;;;;;;-140.66;100.00;55571.53;5115148;28;20034;-74
2023/07/14 12:36:02;;;;;;;9.80;5.93;;;;;;;-140.66;100.00;55571.53;5115806;28;20035;-74
2023/07/14 12:38:50;;;;;;;9.25;5.55;;;;;;;-140.66;100.00;55571.53;5115639;28;20444;-73
2023/07/14 12:41:40;;;;;;;14.35;5.85;;;;;;;-140.66;100.00;55571.53;5114936;28;20037;-74
2023/07/14 12:44:34;;;;;;;20.35;5.55;;;;;;;-140.66;100.00;55571.53;5114782;28;20051;-74
2023/07/14 12:47:20;;;;;;;15.88;5.90;;;;;;;-140.66;100.00;55571.53;5115580;28;20031;-74